sensor_id;sensor_type;location;lat;lon;timestamp;P1;durP1;ratioP1;P2;durP2;ratioP2
32297;SDS011;18782;48.984;8.548;2024-01-15T00:02:08;31.08;;;11.18;;
32297;SDS011;18782;48.984;8.548;2024-01-15T00:04:36;29.92;;;10.48;;
32297;SDS011;18782;48.984;8.548;2024-01-15T00:07:04;29.42;;;11.23;;
32297;SDS011;18782;48.984;8.548;2024-01-15T00:09:32;32.63;;;11.63;;
32297;SDS011;18782;48.984;8.548;2024-01-15T00:12:01;26.38;;;10.82;;
32297;SDS011;18782;48.984;8.548;2024-01-15T00:14:30;35.70;;;12.40;;
32297;SDS011;18782;48.984;8.548;2024-01-15T00:16:57;38.78;;;12.55;;
32297;SDS011;18782;48.984;8.548;2024-01-15T00:19:25;35.97;;;12.00;;
32297;SDS011;18782;48.984;8.548;2024-01-15T00:21:53;37.03;;;13.13;;
32297;SDS011;18782;48.984;8.548;2024-01-15T00:24:21;36.15;;;12.80;;
32297;SDS011;18782;48.984;8.548;2024-01-15T00:26:49;31.60;;;11.63;;
32297;SDS011;18782;48.984;8.548;2024-01-15T00:29:18;34.95;;;13.88;;
32297;SDS011;18782;48.984;8.548;2024-01-15T00:31:45;33.97;;;12.27;;
32297;SDS011;18782;48.984;8.548;2024-01-15T00:34:13;32.92;;;12.48;;
32297;SDS011;18782;48.984;8.548;2024-01-15T00:36:41;38.45;;;13.32;;
32297;SDS011;18782;48.984;8.548;2024-01-15T00:39:09;35.78;;;13.63;;
32297;SDS011;18782;48.984;8.548;2024-01-15T00:41:37;34.67;;;12.40;;
32297;SDS011;18782;48.984;8.548;2024-01-15T00:44:05;37.78;;;13.52;;
32297;SDS011;18782;48.984;8.548;2024-01-15T00:46:36;39.35;;;13.90;;
32297;SDS011;18782;48.984;8.548;2024-01-15T00:49:10;37.92;;;14.48;;
32297;SDS011;18782;48.984;8.548;2024-01-15T00:51:38;35.10;;;13.35;;
32297;SDS011;18782;48.984;8.548;2024-01-15T00:54:06;35.38;;;12.75;;
32297;SDS011;18782;48.984;8.548;2024-01-15T00:56:35;39.28;;;14.07;;
32297;SDS011;18782;48.984;8.548;2024-01-15T00:59:02;38.97;;;13.48;;
32297;SDS011;18782;48.984;8.548;2024-01-15T01:01:30;37.50;;;13.75;;
32297;SDS011;18782;48.984;8.548;2024-01-15T01:03:59;35.65;;;13.95;;
32297;SDS011;18782;48.984;8.548;2024-01-15T01:06:27;38.47;;;13.95;;
32297;SDS011;18782;48.984;8.548;2024-01-15T01:08:58;37.00;;;12.05;;
32297;SDS011;18782;48.984;8.548;2024-01-15T01:11:26;35.65;;;13.85;;
32297;SDS011;18782;48.984;8.548;2024-01-15T01:13:54;39.88;;;13.98;;
32297;SDS011;18782;48.984;8.548;2024-01-15T01:16:22;36.97;;;12.65;;
32297;SDS011;18782;48.984;8.548;2024-01-15T01:18:50;32.58;;;12.38;;
32297;SDS011;18782;48.984;8.548;2024-01-15T01:21:20;34.88;;;12.70;;
32297;SDS011;18782;48.984;8.548;2024-01-15T01:23:47;39.38;;;13.23;;
32297;SDS011;18782;48.984;8.548;2024-01-15T01:26:15;32.25;;;12.43;;
32297;SDS011;18782;48.984;8.548;2024-01-15T01:28:43;37.03;;;12.65;;
32297;SDS011;18782;48.984;8.548;2024-01-15T01:31:11;39.13;;;14.00;;
32297;SDS011;18782;48.984;8.548;2024-01-15T01:33:39;40.20;;;14.13;;
32297;SDS011;18782;48.984;8.548;2024-01-15T01:36:07;36.22;;;13.27;;
32297;SDS011;18782;48.984;8.548;2024-01-15T01:38:37;36.78;;;12.65;;
32297;SDS011;18782;48.984;8.548;2024-01-15T01:41:07;33.03;;;12.60;;
32297;SDS011;18782;48.984;8.548;2024-01-15T01:43:34;38.90;;;13.32;;
32297;SDS011;18782;48.984;8.548;2024-01-15T01:46:02;36.63;;;13.48;;
32297;SDS011;18782;48.984;8.548;2024-01-15T01:48:30;33.72;;;12.25;;
32297;SDS011;18782;48.984;8.548;2024-01-15T01:51:00;34.67;;;12.63;;
32297;SDS011;18782;48.984;8.548;2024-01-15T01:53:30;34.75;;;13.57;;
32297;SDS011;18782;48.984;8.548;2024-01-15T01:56:02;34.47;;;12.55;;
32297;SDS011;18782;48.984;8.548;2024-01-15T01:58:31;35.00;;;12.73;;
32297;SDS011;18782;48.984;8.548;2024-01-15T02:01:00;33.05;;;11.68;;
32297;SDS011;18782;48.984;8.548;2024-01-15T02:03:29;31.90;;;11.70;;
32297;SDS011;18782;48.984;8.548;2024-01-15T02:05:58;31.33;;;11.63;;
32297;SDS011;18782;48.984;8.548;2024-01-15T02:08:27;29.83;;;11.30;;
32297;SDS011;18782;48.984;8.548;2024-01-15T02:10:55;28.75;;;10.20;;
32297;SDS011;18782;48.984;8.548;2024-01-15T02:13:24;28.92;;;10.68;;
32297;SDS011;18782;48.984;8.548;2024-01-15T02:15:51;33.55;;;11.27;;
32297;SDS011;18782;48.984;8.548;2024-01-15T02:18:19;31.35;;;11.13;;
32297;SDS011;18782;48.984;8.548;2024-01-15T02:20:47;27.67;;;10.63;;
32297;SDS011;18782;48.984;8.548;2024-01-15T02:23:16;27.55;;;11.70;;
32297;SDS011;18782;48.984;8.548;2024-01-15T02:25:45;32.00;;;12.07;;
32297;SDS011;18782;48.984;8.548;2024-01-15T02:28:14;31.40;;;11.40;;
32297;SDS011;18782;48.984;8.548;2024-01-15T02:30:43;28.40;;;11.55;;
32297;SDS011;18782;48.984;8.548;2024-01-15T02:33:11;25.83;;;10.77;;
32297;SDS011;18782;48.984;8.548;2024-01-15T02:35:40;27.48;;;11.27;;
32297;SDS011;18782;48.984;8.548;2024-01-15T02:38:08;27.23;;;11.65;;
32297;SDS011;18782;48.984;8.548;2024-01-15T02:40:37;28.55;;;11.18;;
32297;SDS011;18782;48.984;8.548;2024-01-15T02:43:05;30.27;;;11.30;;
32297;SDS011;18782;48.984;8.548;2024-01-15T02:45:33;30.52;;;11.85;;
32297;SDS011;18782;48.984;8.548;2024-01-15T02:48:01;26.02;;;11.27;;
32297;SDS011;18782;48.984;8.548;2024-01-15T02:50:28;28.45;;;10.95;;
32297;SDS011;18782;48.984;8.548;2024-01-15T02:52:56;28.33;;;11.45;;
32297;SDS011;18782;48.984;8.548;2024-01-15T02:55:24;29.10;;;11.30;;
32297;SDS011;18782;48.984;8.548;2024-01-15T02:57:53;30.38;;;11.77;;
32297;SDS011;18782;48.984;8.548;2024-01-15T03:00:21;28.05;;;10.70;;
32297;SDS011;18782;48.984;8.548;2024-01-15T03:02:50;27.90;;;11.32;;
32297;SDS011;18782;48.984;8.548;2024-01-15T03:05:18;29.55;;;12.07;;
32297;SDS011;18782;48.984;8.548;2024-01-15T03:07:46;29.30;;;11.38;;
32297;SDS011;18782;48.984;8.548;2024-01-15T03:10:15;28.42;;;11.63;;
32297;SDS011;18782;48.984;8.548;2024-01-15T03:16:50;29.27;;;10.48;;
32297;SDS011;18782;48.984;8.548;2024-01-15T03:19:17;29.95;;;11.32;;
32297;SDS011;18782;48.984;8.548;2024-01-15T03:21:45;34.38;;;12.52;;
32297;SDS011;18782;48.984;8.548;2024-01-15T03:24:13;28.88;;;10.75;;
32297;SDS011;18782;48.984;8.548;2024-01-15T03:26:41;30.67;;;11.73;;
32297;SDS011;18782;48.984;8.548;2024-01-15T03:29:09;30.17;;;11.82;;
32297;SDS011;18782;48.984;8.548;2024-01-15T03:31:36;31.88;;;11.52;;
32297;SDS011;18782;48.984;8.548;2024-01-15T03:34:05;35.95;;;12.57;;
32297;SDS011;18782;48.984;8.548;2024-01-15T03:36:33;29.15;;;10.98;;
32297;SDS011;18782;48.984;8.548;2024-01-15T03:39:01;31.27;;;11.75;;
32297;SDS011;18782;48.984;8.548;2024-01-15T03:41:29;30.50;;;11.93;;
32297;SDS011;18782;48.984;8.548;2024-01-15T03:43:56;29.88;;;11.70;;
32297;SDS011;18782;48.984;8.548;2024-01-15T03:46:25;32.95;;;12.07;;
32297;SDS011;18782;48.984;8.548;2024-01-15T03:48:53;29.83;;;11.23;;
32297;SDS011;18782;48.984;8.548;2024-01-15T03:51:22;33.15;;;12.20;;
32297;SDS011;18782;48.984;8.548;2024-01-15T03:53:50;31.23;;;11.93;;
32297;SDS011;18782;48.984;8.548;2024-01-15T03:56:18;35.20;;;11.55;;
32297;SDS011;18782;48.984;8.548;2024-01-15T03:58:45;33.17;;;11.88;;
32297;SDS011;18782;48.984;8.548;2024-01-15T04:01:13;32.60;;;12.05;;
32297;SDS011;18782;48.984;8.548;2024-01-15T04:03:41;30.58;;;11.30;;
32297;SDS011;18782;48.984;8.548;2024-01-15T04:06:09;29.83;;;11.98;;
32297;SDS011;18782;48.984;8.548;2024-01-15T04:08:38;34.47;;;12.07;;
32297;SDS011;18782;48.984;8.548;2024-01-15T04:11:05;28.70;;;11.13;;
32297;SDS011;18782;48.984;8.548;2024-01-15T04:13:33;28.83;;;10.63;;
32297;SDS011;18782;48.984;8.548;2024-01-15T04:16:01;34.13;;;12.18;;
32297;SDS011;18782;48.984;8.548;2024-01-15T04:18:29;29.50;;;10.93;;
32297;SDS011;18782;48.984;8.548;2024-01-15T04:20:57;32.85;;;11.25;;
32297;SDS011;18782;48.984;8.548;2024-01-15T04:23:35;33.38;;;11.75;;
32297;SDS011;18782;48.984;8.548;2024-01-15T04:26:04;24.65;;;10.55;;
32297;SDS011;18782;48.984;8.548;2024-01-15T04:28:32;30.98;;;11.18;;
32297;SDS011;18782;48.984;8.548;2024-01-15T04:30:59;25.92;;;10.70;;
32297;SDS011;18782;48.984;8.548;2024-01-15T04:33:27;28.08;;;10.68;;
32297;SDS011;18782;48.984;8.548;2024-01-15T04:35:55;27.42;;;11.30;;
32297;SDS011;18782;48.984;8.548;2024-01-15T04:38:23;29.13;;;11.07;;
32297;SDS011;18782;48.984;8.548;2024-01-15T04:40:50;29.08;;;10.60;;
32297;SDS011;18782;48.984;8.548;2024-01-15T04:43:24;27.30;;;11.48;;
32297;SDS011;18782;48.984;8.548;2024-01-15T04:45:51;31.42;;;12.00;;
32297;SDS011;18782;48.984;8.548;2024-01-15T04:48:19;31.00;;;11.90;;
32297;SDS011;18782;48.984;8.548;2024-01-15T04:50:49;37.08;;;12.20;;
32297;SDS011;18782;48.984;8.548;2024-01-15T04:53:17;31.52;;;12.38;;
32297;SDS011;18782;48.984;8.548;2024-01-15T04:55:44;29.77;;;11.40;;
32297;SDS011;18782;48.984;8.548;2024-01-15T04:58:12;33.35;;;12.18;;
32297;SDS011;18782;48.984;8.548;2024-01-15T05:00:41;32.53;;;12.00;;
32297;SDS011;18782;48.984;8.548;2024-01-15T05:03:09;30.50;;;12.35;;
32297;SDS011;18782;48.984;8.548;2024-01-15T05:05:36;27.33;;;10.32;;
32297;SDS011;18782;48.984;8.548;2024-01-15T05:08:05;29.25;;;11.35;;
32297;SDS011;18782;48.984;8.548;2024-01-15T05:10:32;26.90;;;11.43;;
32297;SDS011;18782;48.984;8.548;2024-01-15T05:13:00;25.52;;;11.07;;
32297;SDS011;18782;48.984;8.548;2024-01-15T05:15:28;27.30;;;10.65;;
32297;SDS011;18782;48.984;8.548;2024-01-15T05:17:57;24.50;;;10.18;;
32297;SDS011;18782;48.984;8.548;2024-01-15T05:20:25;27.15;;;10.30;;
32297;SDS011;18782;48.984;8.548;2024-01-15T05:22:53;30.17;;;11.57;;
32297;SDS011;18782;48.984;8.548;2024-01-15T05:25:20;24.15;;;10.43;;
32297;SDS011;18782;48.984;8.548;2024-01-15T05:27:48;28.38;;;11.55;;
32297;SDS011;18782;48.984;8.548;2024-01-15T05:30:16;30.27;;;11.30;;
32297;SDS011;18782;48.984;8.548;2024-01-15T05:32:44;33.05;;;11.63;;
32297;SDS011;18782;48.984;8.548;2024-01-15T05:35:13;30.05;;;10.38;;
32297;SDS011;18782;48.984;8.548;2024-01-15T05:37:43;28.02;;;11.55;;
32297;SDS011;18782;48.984;8.548;2024-01-15T05:40:12;29.80;;;11.70;;
32297;SDS011;18782;48.984;8.548;2024-01-15T05:42:41;30.23;;;11.10;;
32297;SDS011;18782;48.984;8.548;2024-01-15T05:45:09;29.48;;;11.25;;
32297;SDS011;18782;48.984;8.548;2024-01-15T05:47:36;25.65;;;11.07;;
32297;SDS011;18782;48.984;8.548;2024-01-15T05:50:05;27.10;;;10.68;;
32297;SDS011;18782;48.984;8.548;2024-01-15T05:52:34;31.13;;;12.43;;
32297;SDS011;18782;48.984;8.548;2024-01-15T05:55:02;27.20;;;12.20;;
32297;SDS011;18782;48.984;8.548;2024-01-15T05:57:30;27.05;;;11.60;;
32297;SDS011;18782;48.984;8.548;2024-01-15T05:59:58;26.63;;;10.38;;
32297;SDS011;18782;48.984;8.548;2024-01-15T06:02:26;24.48;;;9.73;;
32297;SDS011;18782;48.984;8.548;2024-01-15T06:04:53;28.02;;;12.15;;
32297;SDS011;18782;48.984;8.548;2024-01-15T06:07:22;30.45;;;11.75;;
32297;SDS011;18782;48.984;8.548;2024-01-15T06:09:51;25.75;;;10.57;;
32297;SDS011;18782;48.984;8.548;2024-01-15T06:12:19;27.60;;;10.57;;
32297;SDS011;18782;48.984;8.548;2024-01-15T06:14:46;26.83;;;11.07;;
32297;SDS011;18782;48.984;8.548;2024-01-15T06:17:14;26.65;;;9.75;;
32297;SDS011;18782;48.984;8.548;2024-01-15T06:19:42;29.55;;;11.10;;
32297;SDS011;18782;48.984;8.548;2024-01-15T06:22:09;23.17;;;9.65;;
32297;SDS011;18782;48.984;8.548;2024-01-15T06:24:37;29.92;;;12.63;;
32297;SDS011;18782;48.984;8.548;2024-01-15T06:27:06;21.60;;;10.40;;
32297;SDS011;18782;48.984;8.548;2024-01-15T06:29:36;23.83;;;10.25;;
32297;SDS011;18782;48.984;8.548;2024-01-15T06:32:05;28.98;;;12.02;;
32297;SDS011;18782;48.984;8.548;2024-01-15T06:34:32;23.90;;;9.68;;
32297;SDS011;18782;48.984;8.548;2024-01-15T06:37:00;24.98;;;10.80;;
32297;SDS011;18782;48.984;8.548;2024-01-15T06:39:28;26.65;;;11.00;;
32297;SDS011;18782;48.984;8.548;2024-01-15T06:41:55;24.67;;;11.10;;
32297;SDS011;18782;48.984;8.548;2024-01-15T06:44:24;24.48;;;10.73;;
32297;SDS011;18782;48.984;8.548;2024-01-15T06:46:52;26.42;;;10.40;;
32297;SDS011;18782;48.984;8.548;2024-01-15T06:49:23;27.75;;;10.85;;
32297;SDS011;18782;48.984;8.548;2024-01-15T06:51:51;27.85;;;11.80;;
32297;SDS011;18782;48.984;8.548;2024-01-15T06:54:19;25.33;;;10.30;;
32297;SDS011;18782;48.984;8.548;2024-01-15T06:56:46;24.45;;;10.95;;
32297;SDS011;18782;48.984;8.548;2024-01-15T06:59:14;28.42;;;10.90;;
32297;SDS011;18782;48.984;8.548;2024-01-15T07:01:46;24.00;;;11.18;;
32297;SDS011;18782;48.984;8.548;2024-01-15T07:04:14;27.48;;;10.77;;
32297;SDS011;18782;48.984;8.548;2024-01-15T07:06:42;24.10;;;10.27;;
32297;SDS011;18782;48.984;8.548;2024-01-15T07:09:10;27.55;;;10.93;;
32297;SDS011;18782;48.984;8.548;2024-01-15T07:11:37;26.88;;;11.52;;
32297;SDS011;18782;48.984;8.548;2024-01-15T07:14:05;25.33;;;11.38;;
32297;SDS011;18782;48.984;8.548;2024-01-15T07:16:33;26.73;;;11.43;;
32297;SDS011;18782;48.984;8.548;2024-01-15T07:19:05;28.88;;;12.68;;
32297;SDS011;18782;48.984;8.548;2024-01-15T07:21:33;30.05;;;11.60;;
32297;SDS011;18782;48.984;8.548;2024-01-15T07:24:01;30.45;;;13.40;;
32297;SDS011;18782;48.984;8.548;2024-01-15T07:26:29;30.50;;;12.50;;
32297;SDS011;18782;48.984;8.548;2024-01-15T07:28:57;29.38;;;12.65;;
32297;SDS011;18782;48.984;8.548;2024-01-15T07:31:25;32.65;;;12.75;;
32297;SDS011;18782;48.984;8.548;2024-01-15T07:33:52;37.17;;;13.82;;
32297;SDS011;18782;48.984;8.548;2024-01-15T07:36:22;31.17;;;12.05;;
32297;SDS011;18782;48.984;8.548;2024-01-15T07:38:49;31.60;;;12.55;;
32297;SDS011;18782;48.984;8.548;2024-01-15T07:41:17;40.50;;;14.70;;
32297;SDS011;18782;48.984;8.548;2024-01-15T07:43:44;32.00;;;13.23;;
32297;SDS011;18782;48.984;8.548;2024-01-15T07:46:12;29.20;;;11.90;;
32297;SDS011;18782;48.984;8.548;2024-01-15T07:48:40;27.75;;;12.23;;
32297;SDS011;18782;48.984;8.548;2024-01-15T07:51:08;33.28;;;12.40;;
32297;SDS011;18782;48.984;8.548;2024-01-15T07:53:37;26.40;;;12.15;;
32297;SDS011;18782;48.984;8.548;2024-01-15T07:56:04;28.75;;;11.43;;
32297;SDS011;18782;48.984;8.548;2024-01-15T07:58:32;27.73;;;10.98;;
32297;SDS011;18782;48.984;8.548;2024-01-15T08:01:00;27.63;;;11.68;;
32297;SDS011;18782;48.984;8.548;2024-01-15T08:03:28;26.77;;;10.65;;
32297;SDS011;18782;48.984;8.548;2024-01-15T08:05:56;33.10;;;11.95;;
32297;SDS011;18782;48.984;8.548;2024-01-15T08:08:25;29.23;;;11.50;;
32297;SDS011;18782;48.984;8.548;2024-01-15T08:10:54;27.80;;;11.27;;
32297;SDS011;18782;48.984;8.548;2024-01-15T08:13:22;25.73;;;10.68;;
32297;SDS011;18782;48.984;8.548;2024-01-15T08:15:50;29.63;;;11.20;;
32297;SDS011;18782;48.984;8.548;2024-01-15T08:18:17;27.00;;;11.35;;
32297;SDS011;18782;48.984;8.548;2024-01-15T08:20:47;23.85;;;10.80;;
32297;SDS011;18782;48.984;8.548;2024-01-15T08:23:14;25.83;;;11.13;;
32297;SDS011;18782;48.984;8.548;2024-01-15T08:25:42;24.27;;;10.55;;
32297;SDS011;18782;48.984;8.548;2024-01-15T08:28:11;25.17;;;10.65;;
32297;SDS011;18782;48.984;8.548;2024-01-15T08:30:39;28.73;;;12.18;;
32297;SDS011;18782;48.984;8.548;2024-01-15T08:33:06;25.50;;;10.32;;
32297;SDS011;18782;48.984;8.548;2024-01-15T08:35:46;24.58;;;10.00;;
32297;SDS011;18782;48.984;8.548;2024-01-15T08:38:14;26.85;;;10.35;;
32297;SDS011;18782;48.984;8.548;2024-01-15T08:40:42;23.45;;;10.20;;
32297;SDS011;18782;48.984;8.548;2024-01-15T08:43:09;22.48;;;11.05;;
32297;SDS011;18782;48.984;8.548;2024-01-15T08:45:38;22.67;;;9.88;;
32297;SDS011;18782;48.984;8.548;2024-01-15T08:48:06;24.25;;;10.38;;
32297;SDS011;18782;48.984;8.548;2024-01-15T08:50:34;25.75;;;10.43;;
32297;SDS011;18782;48.984;8.548;2024-01-15T08:53:02;24.98;;;10.02;;
32297;SDS011;18782;48.984;8.548;2024-01-15T08:55:30;22.30;;;9.77;;
32297;SDS011;18782;48.984;8.548;2024-01-15T08:57:57;22.75;;;10.05;;
32297;SDS011;18782;48.984;8.548;2024-01-15T09:00:25;22.98;;;9.50;;
32297;SDS011;18782;48.984;8.548;2024-01-15T09:02:54;25.58;;;9.50;;
32297;SDS011;18782;48.984;8.548;2024-01-15T09:05:22;19.50;;;8.80;;
32297;SDS011;18782;48.984;8.548;2024-01-15T09:07:50;22.05;;;9.43;;
32297;SDS011;18782;48.984;8.548;2024-01-15T09:10:18;18.83;;;8.60;;
32297;SDS011;18782;48.984;8.548;2024-01-15T09:12:46;18.92;;;8.20;;
32297;SDS011;18782;48.984;8.548;2024-01-15T09:15:15;20.65;;;8.45;;
32297;SDS011;18782;48.984;8.548;2024-01-15T09:17:43;19.02;;;8.15;;
32297;SDS011;18782;48.984;8.548;2024-01-15T09:20:13;18.33;;;8.55;;
32297;SDS011;18782;48.984;8.548;2024-01-15T09:22:41;17.17;;;7.78;;
32297;SDS011;18782;48.984;8.548;2024-01-15T09:25:09;21.27;;;7.50;;
32297;SDS011;18782;48.984;8.548;2024-01-15T09:27:37;18.55;;;8.73;;
32297;SDS011;18782;48.984;8.548;2024-01-15T09:30:05;20.20;;;7.82;;
32297;SDS011;18782;48.984;8.548;2024-01-15T09:32:34;16.90;;;8.32;;
32297;SDS011;18782;48.984;8.548;2024-01-15T09:35:02;17.52;;;8.23;;
32297;SDS011;18782;48.984;8.548;2024-01-15T09:37:32;21.55;;;9.05;;
32297;SDS011;18782;48.984;8.548;2024-01-15T09:40:13;20.98;;;8.73;;
32297;SDS011;18782;48.984;8.548;2024-01-15T09:42:43;22.90;;;9.20;;
32297;SDS011;18782;48.984;8.548;2024-01-15T09:45:12;27.80;;;9.75;;
32297;SDS011;18782;48.984;8.548;2024-01-15T09:47:40;22.75;;;9.45;;
32297;SDS011;18782;48.984;8.548;2024-01-15T09:50:11;21.42;;;10.00;;
32297;SDS011;18782;48.984;8.548;2024-01-15T09:52:42;18.13;;;8.35;;
32297;SDS011;18782;48.984;8.548;2024-01-15T09:55:10;20.88;;;9.00;;
32297;SDS011;18782;48.984;8.548;2024-01-15T09:57:39;23.63;;;9.38;;
32297;SDS011;18782;48.984;8.548;2024-01-15T10:00:07;24.00;;;9.85;;
32297;SDS011;18782;48.984;8.548;2024-01-15T10:02:37;20.45;;;9.88;;
32297;SDS011;18782;48.984;8.548;2024-01-15T10:05:05;23.17;;;9.52;;
32297;SDS011;18782;48.984;8.548;2024-01-15T10:07:34;21.35;;;8.80;;
32297;SDS011;18782;48.984;8.548;2024-01-15T10:10:05;18.20;;;8.80;;
32297;SDS011;18782;48.984;8.548;2024-01-15T10:12:33;22.83;;;9.40;;
32297;SDS011;18782;48.984;8.548;2024-01-15T10:15:02;19.10;;;8.35;;
32297;SDS011;18782;48.984;8.548;2024-01-15T10:17:30;17.70;;;8.82;;
32297;SDS011;18782;48.984;8.548;2024-01-15T10:19:58;21.77;;;8.80;;
32297;SDS011;18782;48.984;8.548;2024-01-15T10:22:27;22.50;;;9.15;;
32297;SDS011;18782;48.984;8.548;2024-01-15T10:24:55;20.23;;;9.30;;
32297;SDS011;18782;48.984;8.548;2024-01-15T10:27:25;19.40;;;8.05;;
32297;SDS011;18782;48.984;8.548;2024-01-15T10:29:52;18.52;;;8.25;;
32297;SDS011;18782;48.984;8.548;2024-01-15T10:32:20;18.95;;;8.07;;
32297;SDS011;18782;48.984;8.548;2024-01-15T10:34:50;19.38;;;7.97;;
32297;SDS011;18782;48.984;8.548;2024-01-15T10:37:20;17.73;;;8.40;;
32297;SDS011;18782;48.984;8.548;2024-01-15T10:39:51;18.60;;;8.63;;
32297;SDS011;18782;48.984;8.548;2024-01-15T10:42:19;18.55;;;8.63;;
32297;SDS011;18782;48.984;8.548;2024-01-15T10:44:48;19.88;;;8.00;;
32297;SDS011;18782;48.984;8.548;2024-01-15T10:47:16;17.90;;;7.40;;
32297;SDS011;18782;48.984;8.548;2024-01-15T10:49:44;23.65;;;10.10;;
32297;SDS011;18782;48.984;8.548;2024-01-15T10:52:13;15.68;;;7.25;;
32297;SDS011;18782;48.984;8.548;2024-01-15T10:54:41;14.93;;;6.70;;
32297;SDS011;18782;48.984;8.548;2024-01-15T10:57:11;14.82;;;6.13;;
32297;SDS011;18782;48.984;8.548;2024-01-15T10:59:42;15.23;;;6.15;;
32297;SDS011;18782;48.984;8.548;2024-01-15T11:02:11;10.77;;;5.63;;
32297;SDS011;18782;48.984;8.548;2024-01-15T11:04:40;12.35;;;6.30;;
32297;SDS011;18782;48.984;8.548;2024-01-15T11:07:08;15.65;;;6.38;;
32297;SDS011;18782;48.984;8.548;2024-01-15T11:09:38;14.30;;;6.90;;
32297;SDS011;18782;48.984;8.548;2024-01-15T11:12:09;12.93;;;5.82;;
32297;SDS011;18782;48.984;8.548;2024-01-15T11:14:38;11.57;;;5.18;;
32297;SDS011;18782;48.984;8.548;2024-01-15T11:17:07;14.32;;;6.13;;
32297;SDS011;18782;48.984;8.548;2024-01-15T11:19:37;13.23;;;6.50;;
32297;SDS011;18782;48.984;8.548;2024-01-15T11:22:10;14.95;;;6.43;;
32297;SDS011;18782;48.984;8.548;2024-01-15T11:25:01;15.07;;;6.68;;
32297;SDS011;18782;48.984;8.548;2024-01-15T11:27:39;15.15;;;7.18;;
32297;SDS011;18782;48.984;8.548;2024-01-15T11:30:08;14.55;;;6.93;;
32297;SDS011;18782;48.984;8.548;2024-01-15T11:32:38;16.23;;;7.13;;
32297;SDS011;18782;48.984;8.548;2024-01-15T11:35:08;18.27;;;7.68;;
32297;SDS011;18782;48.984;8.548;2024-01-15T11:40:39;17.95;;;7.72;;
32297;SDS011;18782;48.984;8.548;2024-01-15T11:43:09;15.75;;;6.72;;
32297;SDS011;18782;48.984;8.548;2024-01-15T11:45:37;16.15;;;6.75;;
32297;SDS011;18782;48.984;8.548;2024-01-15T11:48:12;17.02;;;7.20;;
32297;SDS011;18782;48.984;8.548;2024-01-15T11:50:43;17.17;;;6.75;;
32297;SDS011;18782;48.984;8.548;2024-01-15T11:53:13;18.17;;;7.57;;
32297;SDS011;18782;48.984;8.548;2024-01-15T11:55:58;14.23;;;7.20;;
32297;SDS011;18782;48.984;8.548;2024-01-15T11:58:26;17.30;;;7.10;;
32297;SDS011;18782;48.984;8.548;2024-01-15T12:00:54;17.58;;;7.57;;
32297;SDS011;18782;48.984;8.548;2024-01-15T12:03:22;16.95;;;6.90;;
32297;SDS011;18782;48.984;8.548;2024-01-15T12:05:53;19.50;;;7.70;;
32297;SDS011;18782;48.984;8.548;2024-01-15T12:08:21;17.02;;;7.22;;
32297;SDS011;18782;48.984;8.548;2024-01-15T12:10:50;15.52;;;6.90;;
32297;SDS011;18782;48.984;8.548;2024-01-15T12:13:18;17.05;;;7.65;;
32297;SDS011;18782;48.984;8.548;2024-01-15T12:15:47;17.00;;;7.78;;
32297;SDS011;18782;48.984;8.548;2024-01-15T12:18:16;18.20;;;7.05;;
32297;SDS011;18782;48.984;8.548;2024-01-15T12:20:46;12.55;;;6.38;;
32297;SDS011;18782;48.984;8.548;2024-01-15T12:23:15;15.43;;;7.43;;
32297;SDS011;18782;48.984;8.548;2024-01-15T12:25:44;14.45;;;7.05;;
32297;SDS011;18782;48.984;8.548;2024-01-15T12:28:13;15.50;;;6.30;;
32297;SDS011;18782;48.984;8.548;2024-01-15T12:30:42;12.95;;;6.78;;
32297;SDS011;18782;48.984;8.548;2024-01-15T12:33:10;12.90;;;6.32;;
32297;SDS011;18782;48.984;8.548;2024-01-15T12:35:38;14.10;;;6.20;;
32297;SDS011;18782;48.984;8.548;2024-01-15T12:38:06;14.98;;;6.68;;
32297;SDS011;18782;48.984;8.548;2024-01-15T12:40:35;11.80;;;6.10;;
32297;SDS011;18782;48.984;8.548;2024-01-15T12:43:03;11.90;;;6.18;;
32297;SDS011;18782;48.984;8.548;2024-01-15T12:45:33;11.90;;;6.80;;
32297;SDS011;18782;48.984;8.548;2024-01-15T12:48:01;12.63;;;6.35;;
32297;SDS011;18782;48.984;8.548;2024-01-15T12:50:30;12.90;;;6.20;;
32297;SDS011;18782;48.984;8.548;2024-01-15T12:53:01;13.63;;;6.53;;
32297;SDS011;18782;48.984;8.548;2024-01-15T12:55:28;11.95;;;6.57;;
32297;SDS011;18782;48.984;8.548;2024-01-15T12:57:57;13.57;;;6.50;;
32297;SDS011;18782;48.984;8.548;2024-01-15T13:00:25;14.05;;;6.30;;
32297;SDS011;18782;48.984;8.548;2024-01-15T13:02:53;11.93;;;6.50;;
32297;SDS011;18782;48.984;8.548;2024-01-15T13:05:22;16.70;;;6.13;;
32297;SDS011;18782;48.984;8.548;2024-01-15T13:07:51;14.27;;;6.85;;
32297;SDS011;18782;48.984;8.548;2024-01-15T13:10:18;12.40;;;6.50;;
32297;SDS011;18782;48.984;8.548;2024-01-15T13:12:47;15.73;;;7.15;;
32297;SDS011;18782;48.984;8.548;2024-01-15T13:15:17;13.43;;;6.50;;
32297;SDS011;18782;48.984;8.548;2024-01-15T13:17:44;15.95;;;6.50;;
32297;SDS011;18782;48.984;8.548;2024-01-15T13:20:12;11.85;;;6.07;;
32297;SDS011;18782;48.984;8.548;2024-01-15T13:22:40;13.85;;;6.60;;
32297;SDS011;18782;48.984;8.548;2024-01-15T13:25:11;13.07;;;6.68;;
32297;SDS011;18782;48.984;8.548;2024-01-15T13:27:39;15.90;;;6.93;;
32297;SDS011;18782;48.984;8.548;2024-01-15T13:30:08;13.05;;;6.03;;
32297;SDS011;18782;48.984;8.548;2024-01-15T13:32:40;14.93;;;6.80;;
32297;SDS011;18782;48.984;8.548;2024-01-15T13:35:08;14.60;;;7.32;;
32297;SDS011;18782;48.984;8.548;2024-01-15T13:37:39;13.27;;;6.47;;
32297;SDS011;18782;48.984;8.548;2024-01-15T13:40:07;13.65;;;6.22;;
32297;SDS011;18782;48.984;8.548;2024-01-15T13:42:42;15.77;;;7.25;;
32297;SDS011;18782;48.984;8.548;2024-01-15T13:45:10;12.15;;;5.50;;
32297;SDS011;18782;48.984;8.548;2024-01-15T13:47:42;13.27;;;5.80;;
32297;SDS011;18782;48.984;8.548;2024-01-15T13:50:10;12.57;;;6.22;;
32297;SDS011;18782;48.984;8.548;2024-01-15T13:52:38;13.32;;;6.20;;
32297;SDS011;18782;48.984;8.548;2024-01-15T13:55:07;11.85;;;6.25;;
32297;SDS011;18782;48.984;8.548;2024-01-15T13:57:35;13.00;;;5.80;;
32297;SDS011;18782;48.984;8.548;2024-01-15T14:00:04;13.27;;;6.32;;
32297;SDS011;18782;48.984;8.548;2024-01-15T14:02:37;10.68;;;5.93;;
32297;SDS011;18782;48.984;8.548;2024-01-15T14:05:06;10.50;;;5.45;;
32297;SDS011;18782;48.984;8.548;2024-01-15T14:07:34;11.65;;;5.72;;
32297;SDS011;18782;48.984;8.548;2024-01-15T14:10:02;14.85;;;6.43;;
32297;SDS011;18782;48.984;8.548;2024-01-15T14:12:34;11.32;;;6.32;;
32297;SDS011;18782;48.984;8.548;2024-01-15T14:15:02;11.52;;;6.28;;
32297;SDS011;18782;48.984;8.548;2024-01-15T14:17:31;11.68;;;6.05;;
32297;SDS011;18782;48.984;8.548;2024-01-15T14:19:59;12.73;;;7.05;;
32297;SDS011;18782;48.984;8.548;2024-01-15T14:22:28;14.07;;;7.07;;
32297;SDS011;18782;48.984;8.548;2024-01-15T14:24:56;15.18;;;6.97;;
32297;SDS011;18782;48.984;8.548;2024-01-15T14:27:24;11.45;;;6.20;;
32297;SDS011;18782;48.984;8.548;2024-01-15T14:29:51;16.20;;;7.93;;
32297;SDS011;18782;48.984;8.548;2024-01-15T14:32:19;10.27;;;5.93;;
32297;SDS011;18782;48.984;8.548;2024-01-15T14:34:47;12.35;;;6.25;;
32297;SDS011;18782;48.984;8.548;2024-01-15T14:37:15;12.45;;;6.53;;
32297;SDS011;18782;48.984;8.548;2024-01-15T14:39:44;12.13;;;6.25;;
32297;SDS011;18782;48.984;8.548;2024-01-15T14:42:12;13.60;;;6.25;;